Time;durP1;ratioP1;P1;durP2;ratioP2;P2;SDS_P1;SDS_P2;PMS_P1;PMS_P2;Temp;Humidity;BMP_temperature;BMP_pressure;BME280_temperature;BME280_humidity;BME280_pressure;Samples;Min_cycle;Max_cycle;Signal;HPM_P1;HPM_P2
2023/01/25 00:00:04;;;;;;;5.10;3.10;;;16.00;46.10;;;;;;5129494;27;45256;-69
2023/01/25 00:02:31;;;;;;;3.95;3.15;;;16.00;46.10;;;;;;5129715;27;45133;-69
2023/01/25 00:04:58;;;;;;;3.72;3.10;;;16.00;46.10;;;;;;5129455;27;46860;-69
2023/01/25 00:07:25;;;;;;;3.92;3.05;;;16.00;46.20;;;;;;5129424;27;45311;-69
2023/01/25 00:09:52;;;;;;;5.18;3.20;;;16.00;46.10;;;;;;5129165;27;45342;-70
2023/01/25 00:12:19;;;;;;;5.00;3.13;;;16.00;46.80;;;;;;5129687;27;45218;-70
2023/01/25 00:14:45;;;;;;;6.22;3.60;;;16.00;46.10;;;;;;5129176;27;46297;-69
2023/01/25 00:17:14;;;;;;;5.40;3.13;;;15.90;46.20;;;;;;5129190;27;45195;-70
2023/01/25 00:19:40;;;;;;;4.82;3.42;;;15.90;46.20;;;;;;5129296;27;45314;-70
2023/01/25 00:22:07;;;;;;;5.13;3.70;;;15.90;46.20;;;;;;5129557;27;45271;-70
2023/01/25 00:24:34;;;;;;;4.57;3.30;;;15.90;46.30;;;;;;5129249;27;46636;-70
2023/01/25 00:27:02;;;;;;;3.85;3.08;;;15.90;46.30;;;;;;5129121;27;45185;-70
2023/01/25 00:29:29;;;;;;;5.50;3.28;;;15.80;46.20;;;;;;5129272;27;45190;-70
2023/01/25 00:32:02;;;;;;;4.50;3.17;;;15.80;46.30;;;;;;5129345;27;45407;-69
2023/01/25 00:34:43;;;;;;;3.92;3.20;;;15.80;46.20;;;;;;5128884;27;46728;-70
2023/01/25 00:37:14;;;;;;;4.22;3.03;;;15.80;46.30;;;;;;5128991;27;45155;-70
2023/01/25 00:39:41;;;;;;;4.88;3.45;;;15.80;46.20;;;;;;5129027;27;45314;-70
2023/01/25 00:42:09;;;;;;;3.58;3.22;;;15.80;46.20;;;;;;5129164;27;45304;-69
2023/01/25 00:44:36;;;;;;;5.15;3.17;;;15.80;46.30;;;;;;5128697;27;45236;-69
2023/01/25 00:47:03;;;;;;;4.43;3.33;;;15.80;46.30;;;;;;5128734;27;45171;-69
2023/01/25 00:49:30;;;;;;;4.78;3.15;;;15.80;46.30;;;;;;5128889;27;45313;-70
2023/01/25 00:51:59;;;;;;;4.10;3.05;;;15.70;46.30;;;;;;5129009;27;45414;-69
2023/01/25 00:54:26;;;;;;;5.20;3.30;;;15.70;46.40;;;;;;5128432;27;45175;-69
2023/01/25 00:56:55;;;;;;;4.38;3.28;;;15.70;46.40;;;;;;5128565;27;45272;-69
2023/01/25 00:59:22;;;;;;;6.13;3.25;;;15.70;46.40;;;;;;5128577;27;45352;-69
2023/01/25 01:01:48;;;;;;;4.45;3.33;;;15.70;46.40;;;;;;5128746;27;45225;-69
2023/01/25 01:04:15;;;;;;;4.28;3.40;;;15.70;46.40;;;;;;5128439;27;45199;-69
2023/01/25 01:06:42;;;;;;;4.30;3.30;;;15.70;46.40;;;;;;5128592;27;45190;-69
2023/01/25 01:09:13;;;;;;;4.22;2.53;;;15.60;46.40;;;;;;5128412;27;45195;-69
2023/01/25 01:11:40;;;;;;;5.53;3.40;;;15.60;46.40;;;;;;5128799;27;45240;-69
2023/01/25 01:14:07;;;;;;;4.35;3.13;;;15.60;46.40;;;;;;5128249;27;45256;-69
2023/01/25 01:16:34;;;;;;;4.82;3.00;;;15.60;46.50;;;;;;5128376;27;45175;-70
2023/01/25 01:19:01;;;;;;;3.20;2.90;;;15.60;46.50;;;;;;5128558;27;45311;-69
2023/01/25 01:21:27;;;;;;;4.40;3.05;;;15.60;46.60;;;;;;5128378;27;45310;-69
2023/01/25 01:23:54;;;;;;;3.63;2.92;;;15.50;46.60;;;;;;5128144;27;45281;-69
2023/01/25 01:26:23;;;;;;;3.78;3.15;;;15.50;46.60;;;;;;5128115;27;45171;-69
2023/01/25 01:28:49;;;;;;;4.25;3.20;;;15.50;46.50;;;;;;5128214;27;45214;-69
2023/01/25 01:31:17;;;;;;;4.47;3.00;;;15.50;46.60;;;;;;5128457;27;45316;-69
2023/01/25 01:33:44;;;;;;;4.90;3.30;;;15.50;46.60;;;;;;5128060;27;46642;-70
2023/01/25 01:36:12;;;;;;;4.50;3.30;;;15.50;46.70;;;;;;5128202;27;45201;-68
2023/01/25 01:38:39;;;;;;;3.85;3.17;;;15.50;46.70;;;;;;5128114;27;45248;-69
2023/01/25 01:41:06;;;;;;;4.28;3.05;;;15.50;46.70;;;;;;5128061;27;45306;-69
2023/01/25 01:43:34;;;;;;;3.95;3.20;;;15.50;46.60;;;;;;5127683;27;45535;-69
2023/01/25 01:46:01;;;;;;;3.83;2.85;;;15.50;46.60;;;;;;5127862;27;45179;-69
2023/01/25 01:48:33;;;;;;;3.92;2.63;;;15.50;46.70;;;;;;5128162;27;45220;-69
2023/01/25 01:51:02;;;;;;;3.67;3.30;;;15.50;46.70;;;;;;5127971;27;45593;-69
2023/01/25 01:53:28;;;;;;;4.72;3.08;;;15.50;46.70;;;;;;5127599;27;46396;-69
2023/01/25 01:55:56;;;;;;;5.70;3.45;;;15.50;46.80;;;;;;5127084;27;45257;-69
2023/01/25 01:58:23;;;;;;;4.68;2.90;;;15.40;46.70;;;;;;5128059;27;45359;-69
2023/01/25 02:00:51;;;;;;;3.85;3.15;;;15.40;46.70;;;;;;5127844;27;45385;-69
2023/01/25 02:03:18;;;;;;;3.00;2.67;;;15.40;46.70;;;;;;5127495;27;46604;-69
2023/01/25 02:05:48;;;;;;;5.40;3.30;;;15.40;46.80;;;;;;5127551;27;45319;-69
2023/01/25 02:08:15;;;;;;;4.28;3.00;;;15.40;46.70;;;;;;5127573;27;45370;-69
2023/01/25 02:10:42;;;;;;;5.43;3.45;;;15.40;46.80;;;;;;5127795;27;45171;-69
2023/01/25 02:13:09;;;;;;;4.78;3.10;;;15.40;46.80;;;;;;5127383;27;47313;-69
2023/01/25 02:15:38;;;;;;;4.82;3.38;;;15.40;46.80;;;;;;5127575;27;45311;-69
2023/01/25 02:18:06;;;;;;;6.07;3.63;;;15.40;46.80;;;;;;5127496;27;45228;-69
2023/01/25 02:20:36;;;;;;;4.50;3.00;;;15.40;46.80;;;;;;5127821;27;45391;-69
2023/01/25 02:23:06;;;;;;;3.83;2.95;;;15.40;46.80;;;;;;5127292;27;45267;-69
2023/01/25 02:25:34;;;;;;;3.22;2.72;;;15.40;46.90;;;;;;5127285;27;45133;-69
2023/01/25 02:28:03;;;;;;;4.05;3.15;;;15.40;46.80;;;;;;5124702;27;45420;-69
2023/01/25 02:30:30;;;;;;;3.97;3.08;;;15.30;46.80;;;;;;5127504;27;45322;-69
2023/01/25 02:32:57;;;;;;;5.22;3.20;;;15.40;46.80;;;;;;5127280;27;46413;-69
2023/01/25 02:35:24;;;;;;;3.30;2.67;;;15.30;46.80;;;;;;5127299;27;45235;-69
2023/01/25 02:37:51;;;;;;;3.45;2.75;;;15.40;46.80;;;;;;5127365;27;45521;-69
2023/01/25 02:40:18;;;;;;;3.97;2.90;;;15.30;46.80;;;;;;5127323;27;45283;-69
2023/01/25 02:42:46;;;;;;;4.88;3.20;;;15.40;46.80;;;;;;5126513;27;45364;-69
2023/01/25 02:45:14;;;;;;;4.15;3.03;;;15.30;46.70;;;;;;5127083;27;45188;-69
2023/01/25 02:47:41;;;;;;;3.88;3.03;;;15.30;46.80;;;;;;5127457;27;45314;-69
2023/01/25 02:50:09;;;;;;;3.03;2.53;;;15.30;46.80;;;;;;5127228;27;45287;-69
2023/01/25 02:52:36;;;;;;;3.97;3.00;;;15.30;46.90;;;;;;5126997;27;45374;-69
2023/01/25 02:55:03;;;;;;;3.78;2.92;;;15.30;46.80;;;;;;5127042;27;45158;-69
2023/01/25 02:57:30;;;;;;;4.80;3.20;;;15.30;46.80;;;;;;5126994;27;45154;-69
2023/01/25 02:59:58;;;;;;;3.70;3.10;;;15.30;46.80;;;;;;5127123;27;45251;-69
2023/01/25 03:02:25;;;;;;;3.72;2.70;;;15.30;46.80;;;;;;5126620;27;47250;-69
2023/01/25 03:04:52;;;;;;;4.38;3.20;;;15.30;46.80;;;;;;5127069;27;45293;-69
2023/01/25 03:07:19;;;;;;;3.40;2.78;;;15.30;46.80;;;;;;5126836;27;45204;-69
2023/01/25 03:09:45;;;;;;;4.95;2.78;;;15.30;47.40;;;;;;5129638;27;45403;-69
2023/01/25 03:12:12;;;;;;;5.95;3.47;;;15.30;46.80;;;;;;5130190;27;45350;-69
2023/01/25 03:14:39;;;;;;;4.65;3.63;;;15.30;46.80;;;;;;5130323;27;45319;-69
2023/01/25 03:17:07;;;;;;;5.32;3.70;;;15.30;46.80;;;;;;5130321;27;45330;-69
2023/01/25 03:19:34;;;;;;;3.72;3.17;;;15.30;46.80;;;;;;5130505;27;45193;-69
2023/01/25 03:22:01;;;;;;;3.00;2.70;;;15.30;46.90;;;;;;5129863;27;47367;-69
2023/01/25 03:24:28;;;;;;;3.25;2.83;;;15.30;46.90;;;;;;5130088;27;45302;-69
2023/01/25 03:27:13;;;;;;;4.25;2.83;;;15.30;46.90;;;;;;5130274;27;45267;-68
2023/01/25 03:29:40;;;;;;;3.63;2.80;;;15.30;46.90;;;;;;5130220;27;45403;-69
2023/01/25 03:32:08;;;;;;;4.28;3.15;;;15.30;46.80;;;;;;5129758;27;45468;-69
2023/01/25 03:34:35;;;;;;;4.00;2.70;;;15.20;46.80;;;;;;5130084;27;45253;-69
2023/01/25 03:37:02;;;;;;;4.28;3.10;;;15.20;46.80;;;;;;5129869;27;45322;-69
2023/01/25 03:39:29;;;;;;;2.90;2.45;;;15.20;46.80;;;;;;5130135;27;45459;-69
2023/01/25 03:41:55;;;;;;;3.80;3.10;;;15.20;46.80;;;;;;5129547;27;46430;-69
2023/01/25 03:44:22;;;;;;;3.67;3.15;;;15.20;46.80;;;;;;5129718;27;45300;-69
2023/01/25 03:46:49;;;;;;;4.05;3.03;;;15.20;46.80;;;;;;5129924;27;45265;-69
2023/01/25 03:49:18;;;;;;;5.18;3.03;;;15.20;46.80;;;;;;5129923;27;45221;-69
2023/01/25 03:51:45;;;;;;;3.78;3.00;;;15.20;46.90;;;;;;5129705;27;47634;-70
2023/01/25 03:54:12;;;;;;;4.72;3.38;;;15.20;46.90;;;;;;5129693;27;45378;-69
2023/01/25 03:56:39;;;;;;;4.53;3.40;;;15.20;46.80;;;;;;5129800;27;45256;-69
2023/01/25 03:59:05;;;;;;;4.05;2.83;;;15.20;46.90;;;;;;5129821;27;45231;-69
2023/01/25 04:01:32;;;;;;;4.50;2.83;;;15.20;46.90;;;;;;5129285;27;45293;-69
2023/01/25 04:03:59;;;;;;;3.13;2.55;;;15.20;46.90;;;;;;5129388;27;45331;-69
2023/01/25 04:06:27;;;;;;;3.97;2.70;;;15.20;46.90;;;;;;5129515;27;45228;-69
2023/01/25 04:08:54;;;;;;;4.10;3.00;;;15.20;46.90;;;;;;5129513;27;45163;-69
2023/01/25 04:11:21;;;;;;;3.30;2.65;;;15.20;46.90;;;;;;5129210;27;45240;-69
2023/01/25 04:13:47;;;;;;;4.72;3.08;;;15.20;46.90;;;;;;5129197;27;45256;-69
2023/01/25 04:16:14;;;;;;;4.88;3.30;;;15.20;46.90;;;;;;5129743;27;45362;-69
2023/01/25 04:18:41;;;;;;;4.65;3.15;;;15.20;46.90;;;;;;5129369;27;45302;-69
2023/01/25 04:21:08;;;;;;;3.70;2.58;;;15.20;46.90;;;;;;5128764;27;45179;-69
2023/01/25 04:23:36;;;;;;;4.68;2.80;;;15.20;46.90;;;;;;5129115;27;45238;-69
2023/01/25 04:26:05;;;;;;;3.88;2.90;;;15.20;46.90;;;;;;5129141;27;45382;-69
2023/01/25 04:28:31;;;;;;;5.90;2.97;;;15.10;46.90;;;;;;5129201;27;45288;-69
2023/01/25 04:30:58;;;;;;;4.60;2.63;;;15.10;46.90;;;;;;5128994;27;46519;-69
2023/01/25 04:33:25;;;;;;;4.53;3.20;;;15.20;46.90;;;;;;5129015;27;45208;-69
2023/01/25 04:35:52;;;;;;;4.20;2.53;;;15.10;46.90;;;;;;5129034;27;45157;-69
2023/01/25 04:38:19;;;;;;;6.22;2.88;;;15.10;46.90;;;;;;5129086;27;45353;-69
2023/01/25 04:40:47;;;;;;;4.53;3.22;;;15.10;46.90;;;;;;5128669;27;45298;-69
2023/01/25 04:43:15;;;;;;;4.57;3.00;;;15.10;46.90;;;;;;5128822;27;45181;-69
2023/01/25 04:45:41;;;;;;;4.53;2.67;;;15.10;46.90;;;;;;5128856;27;45188;-69
2023/01/25 04:48:09;;;;;;;3.95;3.00;;;15.10;46.90;;;;;;5128950;27;45474;-69
2023/01/25 04:50:36;;;;;;;4.28;3.10;;;15.10;46.90;;;;;;5128504;27;45465;-69
2023/01/25 04:53:03;;;;;;;5.07;3.03;;;15.10;46.90;;;;;;5128564;27;45229;-69
2023/01/25 04:55:30;;;;;;;4.72;2.78;;;15.10;46.90;;;;;;5128680;27;45279;-69
2023/01/25 04:57:58;;;;;;;3.95;2.80;;;15.10;46.90;;;;;;5128977;27;45406;-69
2023/01/25 05:00:25;;;;;;;4.55;2.60;;;15.10;46.90;;;;;;5128423;27;46284;-69
2023/01/25 05:02:51;;;;;;;3.75;2.60;;;15.10;46.90;;;;;;5128250;27;45304;-69
2023/01/25 05:05:18;;;;;;;3.60;3.05;;;15.10;46.90;;;;;;5128633;27;45195;-69
2023/01/25 05:07:45;;;;;;;4.28;3.00;;;15.10;46.90;;;;;;5128692;27;45452;-69
2023/01/25 05:10:12;;;;;;;3.83;2.83;;;15.10;46.90;;;;;;5127822;27;46365;-69
2023/01/25 05:12:39;;;;;;;5.15;3.05;;;15.10;46.90;;;;;;5128294;27;45267;-69
2023/01/25 05:15:08;;;;;;;3.25;2.50;;;15.10;46.90;;;;;;5128450;27;45292;-69
2023/01/25 05:17:34;;;;;;;4.22;2.78;;;15.10;47.00;;;;;;5128490;27;45220;-69
2023/01/25 05:20:01;;;;;;;3.60;2.70;;;15.10;47.00;;;;;;5128228;27;47523;-69
2023/01/25 05:22:28;;;;;;;3.13;2.75;;;15.10;47.00;;;;;;5127971;27;45363;-69
2023/01/25 05:24:55;;;;;;;3.38;2.80;;;15.10;47.20;;;;;;5128258;27;45429;-69
2023/01/25 05:27:21;;;;;;;3.75;2.63;;;15.10;47.00;;;;;;5128282;27;45398;-69
2023/01/25 05:29:48;;;;;;;3.33;2.78;;;15.10;47.00;;;;;;5127903;27;46586;-69
2023/01/25 05:32:17;;;;;;;4.63;2.83;;;15.00;46.90;;;;;;5126921;27;45176;-69
2023/01/25 05:34:44;;;;;;;4.38;3.08;;;15.00;46.90;;;;;;5128027;27;45376;-69
2023/01/25 05:37:12;;;;;;;3.30;2.67;;;15.00;46.90;;;;;;5128114;27;45229;-69
2023/01/25 05:39:38;;;;;;;4.15;2.72;;;15.00;46.90;;;;;;5127650;27;46416;-69
2023/01/25 05:42:10;;;;;;;4.07;2.88;;;15.00;46.90;;;;;;5127718;27;45243;-69
2023/01/25 05:44:40;;;;;;;3.33;2.65;;;15.00;46.90;;;;;;5127877;27;45290;-69
2023/01/25 05:47:07;;;;;;;4.70;2.55;;;15.00;47.00;;;;;;5128025;27;45227;-69
2023/01/25 05:49:35;;;;;;;3.22;2.60;;;15.00;46.90;;;;;;5127555;27;46405;-69
2023/01/25 05:52:02;;;;;;;4.20;3.10;;;15.00;46.90;;;;;;5127601;27;45281;-69
2023/01/25 05:54:29;;;;;;;5.18;2.90;;;15.00;46.90;;;;;;5127826;27;45192;-68
2023/01/25 05:56:55;;;;;;;5.07;2.70;;;15.00;46.90;;;;;;5128087;27;45258;-68
2023/01/25 05:59:22;;;;;;;4.10;2.58;;;15.00;47.00;;;;;;5127608;27;45584;-69
2023/01/25 06:01:49;;;;;;;2.78;2.50;;;15.00;47.00;;;;;;5127819;27;45400;-68
2023/01/25 06:04:16;;;;;;;3.97;2.80;;;15.00;47.00;;;;;;5127846;27;45275;-69
2023/01/25 06:06:44;;;;;;;4.28;2.72;;;15.00;47.00;;;;;;5127848;27;45323;-68
2023/01/25 06:09:11;;;;;;;3.50;2.65;;;15.00;47.00;;;;;;5127086;27;45216;-69
2023/01/25 06:11:38;;;;;;;5.47;3.13;;;15.00;46.90;;;;;;5127431;27;45185;-69
2023/01/25 06:14:05;;;;;;;5.25;3.00;;;15.00;47.00;;;;;;5127497;27;45232;-68
2023/01/25 06:16:32;;;;;;;2.95;2.35;;;15.00;46.90;;;;;;5127602;27;45463;-69
2023/01/25 06:18:59;;;;;;;4.15;2.85;;;15.00;46.90;;;;;;5127209;27;45288;-68
2023/01/25 06:21:25;;;;;;;3.83;2.92;;;15.00;46.90;;;;;;5127133;27;45296;-68
2023/01/25 06:23:54;;;;;;;6.00;3.58;;;15.00;46.90;;;;;;5127330;27;45169;-68
2023/01/25 06:26:24;;;;;;;4.30;3.10;;;15.00;46.90;;;;;;5127522;27;45420;-69
2023/01/25 06:28:50;;;;;;;3.58;2.85;;;15.00;46.90;;;;;;5127164;27;46840;-68
2023/01/25 06:31:17;;;;;;;3.75;2.92;;;15.00;47.00;;;;;;5127162;27;45176;-69
2023/01/25 06:33:47;;;;;;;3.33;2.53;;;14.90;47.00;;;;;;5127285;27;45403;-69
2023/01/25 06:36:15;;;;;;;4.43;3.20;;;14.90;47.00;;;;;;5127410;27;45240;-69
2023/01/25 06:38:41;;;;;;;3.60;2.72;;;15.00;47.00;;;;;;5127020;27;45458;-70
2023/01/25 06:41:10;;;;;;;4.13;2.58;;;14.90;46.90;;;;;;5126916;27;45218;-69
2023/01/25 06:43:37;;;;;;;3.70;2.58;;;14.90;47.00;;;;;;5129700;27;45305;-69
2023/01/25 06:46:05;;;;;;;4.53;2.90;;;14.90;47.00;;;;;;5130877;27;45303;-69
2023/01/25 06:48:32;;;;;;;3.88;3.00;;;15.00;47.00;;;;;;5130427;27;46424;-70
2023/01/25 06:50:59;;;;;;;3.67;2.70;;;14.90;46.90;;;;;;5130605;27;45201;-69
2023/01/25 06:53:27;;;;;;;3.05;2.75;;;14.90;47.00;;;;;;5130638;27;45253;-69
2023/01/25 06:55:58;;;;;;;4.03;3.15;;;14.90;47.00;;;;;;5130729;27;45324;-69
2023/01/25 06:58:26;;;;;;;4.22;2.90;;;14.90;47.00;;;;;;5130394;27;47290;-69
2023/01/25 07:00:53;;;;;;;4.38;3.22;;;14.90;47.00;;;;;;5130417;27;45302;-69
2023/01/25 07:03:20;;;;;;;3.92;2.90;;;14.90;47.00;;;;;;5130451;27;45179;-69
2023/01/25 07:05:48;;;;;;;3.47;2.58;;;14.90;47.00;;;;;;5130529;27;45477;-69
2023/01/25 07:08:15;;;;;;;3.28;2.90;;;14.90;47.00;;;;;;5130089;27;46395;-69
2023/01/25 07:10:42;;;;;;;3.75;2.97;;;14.90;46.90;;;;;;5130216;27;45306;-69
2023/01/25 07:13:09;;;;;;;3.95;2.72;;;14.90;47.00;;;;;;5130321;27;45350;-69
2023/01/25 07:15:37;;;;;;;3.72;3.20;;;14.90;47.00;;;;;;5130485;27;45228;-69
2023/01/25 07:18:04;;;;;;;5.82;3.05;;;14.90;47.00;;;;;;5130100;27;45564;-69
2023/01/25 07:20:31;;;;;;;5.28;3.25;;;14.90;47.00;;;;;;5130090;27;45311;-68
2023/01/25 07:22:58;;;;;;;4.28;3.00;;;14.90;47.00;;;;;;5130059;27;45270;-69
2023/01/25 07:25:25;;;;;;;4.13;2.85;;;14.90;47.00;;;;;;5130407;27;45199;-69
2023/01/25 07:27:52;;;;;;;4.80;3.00;;;14.90;47.00;;;;;;5129729;27;45222;-69
2023/01/25 07:30:20;;;;;;;5.68;2.90;;;14.90;47.00;;;;;;5129955;27;45310;-70
2023/01/25 07:32:48;;;;;;;5.25;3.15;;;14.90;47.00;;;;;;5130047;27;45304;-69
2023/01/25 07:35:15;;;;;;;4.85;3.20;;;14.80;47.00;;;;;;5130223;27;45191;-69
2023/01/25 07:37:42;;;;;;;3.33;2.72;;;14.90;47.10;;;;;;5130122;27;46257;-69
2023/01/25 07:40:10;;;;;;;3.58;2.78;;;14.80;47.00;;;;;;5129763;27;45192;-69
2023/01/25 07:42:37;;;;;;;4.35;3.03;;;14.80;47.00;;;;;;5129997;27;45350;-69
2023/01/25 07:45:04;;;;;;;4.18;2.97;;;14.80;47.00;;;;;;5129869;27;45351;-69
2023/01/25 07:47:31;;;;;;;4.63;3.10;;;14.80;47.00;;;;;;5129481;27;45342;-69
2023/01/25 07:50:00;;;;;;;4.32;3.10;;;14.80;47.00;;;;;;5129565;27;45135;-69
2023/01/25 07:52:27;;;;;;;4.60;3.28;;;14.90;47.10;;;;;;5129617;27;45323;-69
2023/01/25 07:54:53;;;;;;;4.47;3.10;;;14.80;47.00;;;;;;5128892;27;45227;-69
2023/01/25 07:57:20;;;;;;;3.70;2.97;;;14.80;47.00;;;;;;5129344;27;46415;-69
2023/01/25 07:59:48;;;;;;;5.45;3.38;;;14.80;47.00;;;;;;5129550;27;45252;-69
2023/01/25 08:02:15;;;;;;;3.50;3.00;;;14.80;47.00;;;;;;5129737;27;45321;-69
2023/01/25 08:04:44;;;;;;;5.53;3.22;;;14.80;47.00;;;;;;5129634;27;45295;-69
2023/01/25 08:07:12;;;;;;;4.35;3.13;;;14.90;47.10;;;;;;5129254;27;45661;-69
2023/01/25 08:09:39;;;;;;;5.25;3.10;;;14.80;47.00;;;;;;5129168;27;45251;-69
2023/01/25 08:12:06;;;;;;;4.15;3.45;;;14.80;47.00;;;;;;5129443;27;45264;-69
2023/01/25 08:14:33;;;;;;;4.18;3.17;;;14.90;47.00;;;;;;5129608;27;45387;-68
2023/01/25 08:17:00;;;;;;;3.55;2.95;;;14.80;47.00;;;;;;5129077;27;47005;-69
2023/01/25 08:19:27;;;;;;;4.28;2.92;;;14.80;47.60;;;;;;5129266;27;45213;-69
2023/01/25 08:21:54;;;;;;;4.68;2.85;;;14.90;47.00;;;;;;5129071;27;45280;-69
2023/01/25 08:24:22;;;;;;;4.25;3.20;;;14.90;47.00;;;;;;5129296;27;45327;-69
2023/01/25 08:26:49;;;;;;;5.20;3.05;;;14.90;47.00;;;;;;5128787;27;48267;-69
2023/01/25 08:29:16;;;;;;;3.28;2.80;;;14.90;47.00;;;;;;5128955;27;45184;-69
2023/01/25 08:31:44;;;;;;;5.53;2.90;;;14.90;47.00;;;;;;5129029;27;45244;-69
2023/01/25 08:34:10;;;;;;;4.90;3.30;;;14.90;47.00;;;;;;5129314;27;45313;-69
2023/01/25 08:36:37;;;;;;;5.18;3.53;;;14.90;47.00;;;;;;5128785;27;46763;-69
2023/01/25 08:39:05;;;;;;;4.35;3.10;;;14.90;47.00;;;;;;5128873;27;45295;-69
2023/01/25 08:41:34;;;;;;;4.90;2.72;;;14.90;47.00;;;;;;5128903;27;45165;-69
2023/01/25 08:44:00;;;;;;;5.00;3.25;;;14.90;47.00;;;;;;5129042;27;45379;-69
2023/01/25 08:46:28;;;;;;;3.90;3.15;;;14.90;47.00;;;;;;5128499;27;46362;-69
2023/01/25 08:48:55;;;;;;;4.10;3.33;;;14.90;47.00;;;;;;5128599;27;45298;-69
2023/01/25 08:51:22;;;;;;;4.93;3.20;;;14.90;47.00;;;;;;5128747;27;45198;-69
2023/01/25 08:53:49;;;;;;;3.38;2.80;;;14.90;47.00;;;;;;5128888;27;45371;-69
2023/01/25 08:56:16;;;;;;;4.75;3.30;;;14.90;47.00;;;;;;5121949;27;45311;-69
2023/01/25 08:58:45;;;;;;;4.53;3.38;;;14.90;47.00;;;;;;5117807;27;45407;-69
2023/01/25 09:01:13;;;;;;;7.68;3.45;;;14.90;47.10;;;;;;5109695;27;45242;-69
2023/01/25 09:03:41;;;;;;;6.10;3.47;;;14.90;47.10;;;;;;5108194;27;45211;-69
2023/01/25 09:06:08;;;;;;;6.90;3.20;;;14.90;47.20;;;;;;5107524;27;45252;-69
2023/01/25 09:08:36;;;;;;;5.28;3.42;;;14.90;47.10;;;;;;5107438;27;45282;-69
2023/01/25 09:11:03;;;;;;;5.68;3.50;;;14.90;47.10;;;;;;5107875;27;45212;-69
2023/01/25 09:13:30;;;;;;;5.97;3.53;;;14.90;47.10;;;;;;5107889;27;45372;-68
2023/01/25 09:16:01;;;;;;;5.32;3.45;;;14.90;47.00;;;;;;5107490;27;46572;-69
2023/01/25 09:18:28;;;;;;;7.88;3.67;;;14.90;47.00;;;;;;5107673;27;45229;-69
2023/01/25 09:20:55;;;;;;;5.90;3.85;;;14.90;47.10;;;;;;5107707;27;45230;-69
2023/01/25 09:23:22;;;;;;;4.88;3.30;;;14.90;47.10;;;;;;5107718;27;45386;-69
2023/01/25 09:25:49;;;;;;;5.68;3.47;;;14.90;47.00;;;;;;5107491;27;45273;-69
2023/01/25 09:28:16;;;;;;;4.68;3.47;;;14.90;47.00;;;;;;5107475;27;45173;-69
2023/01/25 09:30:43;;;;;;;5.93;3.60;;;14.90;47.00;;;;;;5107440;27;45187;-69
2023/01/25 09:33:15;;;;;;;4.20;3.67;;;15.00;47.00;;;;;;5107492;27;45304;-69
2023/01/25 09:35:47;;;;;;;4.85;3.60;;;14.90;47.00;;;;;;5107233;27;46163;-68
2023/01/25 09:38:14;;;;;;;5.40;3.65;;;14.90;46.90;;;;;;5107350;27;45313;-69
2023/01/25 09:40:42;;;;;;;6.05;3.45;;;14.90;47.00;;;;;;5107638;27;45320;-69
2023/01/25 09:43:10;;;;;;;5.35;3.53;;;14.90;47.00;;;;;;5107369;27;45205;-69
2023/01/25 09:45:37;;;;;;;5.95;3.67;;;14.90;47.00;;;;;;5106934;27;46385;-69
2023/01/25 09:48:12;;;;;;;6.10;3.40;;;14.90;47.00;;;;;;5107018;27;45321;-69
2023/01/25 09:50:44;;;;;;;5.05;3.47;;;14.90;47.00;;;;;;5107255;27;45362;-69
2023/01/25 09:53:20;;;;;;;5.38;3.40;;;14.90;47.00;;;;;;5107289;27;45182;-69
2023/01/25 09:55:52;;;;;;;4.82;3.42;;;14.90;47.00;;;;;;5104218;27;46150;-70
2023/01/25 09:58:20;;;;;;;6.55;3.72;;;14.90;47.00;;;;;;5106841;27;45268;-69
2023/01/25 10:00:49;;;;;;;4.47;3.42;;;14.90;47.00;;;;;;5107052;27;45319;-69
2023/01/25 10:03:20;;;;;;;5.53;3.55;;;14.90;47.00;;;;;;5106925;27;45665;-69
2023/01/25 10:05:48;;;;;;;4.22;3.50;;;14.90;47.00;;;;;;5106710;27;46332;-70
2023/01/25 10:08:20;;;;;;;5.63;3.85;;;14.90;47.00;;;;;;5106403;27;45348;-70
2023/01/25 10:10:47;;;;;;;5.65;3.88;;;14.90;47.00;;;;;;5106851;27;45213;-69
2023/01/25 10:13:15;;;;;;;5.93;3.90;;;14.90;47.00;;;;;;5106911;27;45277;-69
2023/01/25 10:15:45;;;;;;;5.35;3.35;;;14.90;47.00;;;;;;5106599;27;46783;-69
2023/01/25 10:18:19;;;;;;;4.43;3.40;;;14.90;47.00;;;;;;5106113;27;45391;-69
2023/01/25 10:20:49;;;;;;;6.40;3.83;;;14.90;47.60;;;;;;5106809;27;45230;-69
2023/01/25 10:23:27;;;;;;;5.60;3.67;;;14.90;47.00;;;;;;5106636;27;45408;-70
2023/01/25 10:25:57;;;;;;;7.20;3.80;;;14.90;47.00;;;;;;5106553;27;45227;-70
2023/01/25 10:28:30;;;;;;;5.75;3.50;;;14.90;47.00;;;;;;5106421;27;45355;-69
2023/01/25 10:30:59;;;;;;;4.63;3.90;;;14.90;47.00;;;;;;5106996;27;45393;-70
2023/01/25 10:33:28;;;;;;;5.68;3.72;;;14.90;47.00;;;;;;5106698;27;45419;-69
2023/01/25 10:35:56;;;;;;;4.97;3.47;;;14.90;47.00;;;;;;5106315;27;46398;-69
2023/01/25 10:38:26;;;;;;;5.90;4.32;;;14.90;47.10;;;;;;5106263;27;45372;-69
2023/01/25 10:40:54;;;;;;;5.47;3.72;;;14.80;47.00;;;;;;5106776;27;45172;-69
2023/01/25 10:43:22;;;;;;;5.22;4.10;;;14.80;47.00;;;;;;5106511;27;45237;-69
2023/01/25 10:45:49;;;;;;;4.75;3.15;;;14.80;47.00;;;;;;5106211;27;45470;-69
2023/01/25 10:48:18;;;;;;;4.50;3.78;;;14.80;47.00;;;;;;5106335;27;45294;-69
2023/01/25 10:50:48;;;;;;;5.25;3.80;;;14.80;47.00;;;;;;5106717;27;45230;-69
2023/01/25 10:53:38;;;;;;;5.60;3.38;;;14.80;47.10;;;;;;5106403;27;45404;-69
2023/01/25 10:56:21;;;;;;;4.88;3.58;;;14.80;47.10;;;;;;5102045;27;45252;-69
2023/01/25 10:58:49;;;;;;;6.32;4.00;;;14.80;47.10;;;;;;5104700;27;45235;-69
2023/01/25 11:01:26;;;;;;;4.90;3.55;;;14.80;47.10;;;;;;5106301;27;45186;-69
2023/01/25 11:03:52;;;;;;;5.07;3.38;;;14.80;47.10;;;;;;5106396;27;45369;-69
2023/01/25 11:06:31;;;;;;;5.72;3.55;;;14.80;47.10;;;;;;5106114;27;47599;-69
2023/01/25 11:08:57;;;;;;;4.43;3.15;;;14.80;47.20;;;;;;5105675;27;45254;-69
2023/01/25 11:11:25;;;;;;;5.43;3.78;;;14.80;47.20;;;;;;5106053;27;45232;-69
2023/01/25 11:13:54;;;;;;;5.90;3.72;;;14.80;47.10;;;;;;5106140;27;45411;-69
2023/01/25 11:16:33;;;;;;;5.10;3.38;;;14.70;47.70;;;;;;5105747;27;45471;-69
2023/01/25 11:19:01;;;;;;;6.15;3.97;;;14.70;47.10;;;;;;5105860;27;45182;-69
2023/01/25 11:21:30;;;;;;;4.70;3.35;;;14.70;47.20;;;;;;5105937;27;45253;-69
2023/01/25 11:24:01;;;;;;;6.45;3.45;;;14.70;47.20;;;;;;5105998;27;45357;-69
2023/01/25 11:26:28;;;;;;;7.57;3.92;;;14.70;47.20;;;;;;5105567;27;46759;-69
2023/01/25 11:29:07;;;;;;;4.35;3.60;;;14.70;47.20;;;;;;5105876;27;45317;-69
2023/01/25 11:31:34;;;;;;;6.03;3.97;;;14.70;47.20;;;;;;5109429;27;45274;-69
2023/01/25 11:34:00;;;;;;;6.20;3.80;;;14.70;47.20;;;;;;5109549;27;45399;-69
2023/01/25 11:36:32;;;;;;;4.70;3.72;;;14.70;47.20;;;;;;5108874;27;46377;-69
2023/01/25 11:39:10;;;;;;;5.25;3.80;;;14.70;47.20;;;;;;5109213;27;45333;-68
2023/01/25 11:41:43;;;;;;;6.18;3.85;;;14.70;47.80;;;;;;5109171;27;45335;-69
2023/01/25 11:44:33;;;;;;;7.68;3.53;;;14.70;47.30;;;;;;5109309;27;45368;-70
2023/01/25 11:47:03;;;;;;;4.70;3.90;;;14.70;47.30;;;;;;5108303;27;47291;-69
2023/01/25 11:49:38;;;;;;;5.95;3.80;;;14.70;47.30;;;;;;5108943;27;45251;-69
2023/01/25 11:52:12;;;;;;;4.50;3.42;;;14.70;47.20;;;;;;5109213;27;45349;-69
2023/01/25 11:54:45;;;;;;;5.50;3.80;;;14.70;47.20;;;;;;5109174;27;45341;-69
2023/01/25 11:57:29;;;;;;;4.00;3.25;;;14.70;47.90;;;;;;5108777;27;45299;-69
2023/01/25 12:00:05;;;;;;;6.32;3.70;;;14.70;47.20;;;;;;5107319;27;45276;-69
2023/01/25 12:02:54;;;;;;;6.82;3.70;;;14.70;47.20;;;;;;5108945;27;45303;-69
2023/01/25 12:05:39;;;;;;;7.25;4.13;;;14.70;47.30;;;;;;5108947;27;45201;-69
2023/01/25 12:08:17;;;;;;;4.63;3.60;;;14.70;47.20;;;;;;5107415;27;45334;-69
2023/01/25 12:10:47;;;;;;;8.57;4.13;;;14.70;47.20;;;;;;5108485;27;45343;-69
2023/01/25 12:13:17;;;;;;;5.18;3.85;;;14.70;47.20;;;;;;5108708;27;45269;-69
2023/01/25 12:15:54;;;;;;;5.85;3.20;;;14.70;47.30;;;;;;5108799;27;45390;-69
2023/01/25 12:18:45;;;;;;;5.38;3.65;;;14.70;47.20;;;;;;5108339;27;45504;-69
2023/01/25 12:21:18;;;;;;;7.50;3.50;;;14.70;47.20;;;;;;5108433;27;45209;-69
2023/01/25 12:23:59;;;;;;;6.00;4.00;;;14.70;47.20;;;;;;5108460;27;45160;-69
2023/01/25 12:26:28;;;;;;;4.25;2.95;;;14.70;47.20;;;;;;5108609;27;45272;-68
2023/01/25 12:28:59;;;;;;;5.05;3.42;;;14.70;47.20;;;;;;5108395;27;45770;-69
2023/01/25 12:31:28;;;;;;;5.72;3.60;;;14.70;47.20;;;;;;5108170;27;45319;-69
2023/01/25 12:33:57;;;;;;;4.93;3.45;;;14.70;47.10;;;;;;5108353;27;45255;-68
2023/01/25 12:36:27;;;;;;;6.43;3.35;;;14.70;47.20;;;;;;5108432;27;45263;-69
2023/01/25 12:38:57;;;;;;;4.88;3.38;;;14.70;47.20;;;;;;5107965;27;46643;-69
2023/01/25 12:41:30;;;;;;;4.68;3.25;;;14.70;47.20;;;;;;5107662;27;45312;-69
2023/01/25 12:43:59;;;;;;;4.22;3.45;;;14.70;47.20;;;;;;5107924;27;45404;-69
2023/01/25 12:46:28;;;;;;;6.63;3.50;;;14.70;47.10;;;;;;5108181;27;45229;-68
2023/01/25 12:48:56;;;;;;;4.35;3.38;;;14.70;47.10;;;;;;5107934;27;46673;-69
2023/01/25 12:51:23;;;;;;;6.13;3.92;;;14.70;47.20;;;;;;5108075;27;45472;-69
2023/01/25 12:53:51;;;;;;;4.95;3.42;;;14.70;47.10;;;;;;5108333;27;45331;-69